createdAt,value
2019-05-06T00:01:39.442Z,3.90
2019-05-06T00:04:09.760Z,4.93
2019-05-06T00:06:40.460Z,5.40
2019-05-06T00:09:11.236Z,4.30
2019-05-06T00:11:41.876Z,4.20
2019-05-06T00:14:14.020Z,5.10
2019-05-06T00:16:45.009Z,4.10
2019-05-06T00:19:15.801Z,3.93
2019-05-06T00:21:46.300Z,4.03
2019-05-06T00:24:16.466Z,4.13
2019-05-06T00:27:01.060Z,4.57
2019-05-06T00:29:31.984Z,4.47
2019-05-06T00:32:04.420Z,3.73
2019-05-06T00:34:35.363Z,4.13
2019-05-06T00:37:06.011Z,4.17
2019-05-06T00:39:44.445Z,3.63
2019-05-06T00:42:24.618Z,3.90
2019-05-06T00:44:54.606Z,4.40
2019-05-06T00:47:24.817Z,4.50
2019-05-06T00:49:55.239Z,4.43
2019-05-06T00:52:26.090Z,4.63
2019-05-06T00:54:56.367Z,5.00
2019-05-06T00:57:28.237Z,3.97
2019-05-06T00:59:58.808Z,3.97
2019-05-06T01:02:30.253Z,4.17
2019-05-06T01:05:00.584Z,4.07
2019-05-06T01:07:34.496Z,4.37
2019-05-06T01:10:08.352Z,4.53
2019-05-06T01:12:40.392Z,4.27
2019-05-06T01:15:14.257Z,4.37
2019-05-06T01:17:44.659Z,4.13
2019-05-06T01:20:15.684Z,3.73
2019-05-06T01:22:46.314Z,4.80
2019-05-06T01:25:17.025Z,4.53
2019-05-06T01:27:47.662Z,4.53
2019-05-06T01:30:18.543Z,4.63
2019-05-06T01:32:48.822Z,4.20
2019-05-06T01:35:20.424Z,4.23
2019-05-06T01:37:54.518Z,3.97
2019-05-06T01:40:29.324Z,4.87
2019-05-06T01:43:07.742Z,4.70
2019-05-06T01:45:38.209Z,4.77
2019-05-06T01:48:08.960Z,4.87
2019-05-06T01:50:39.510Z,4.57
2019-05-06T01:53:09.621Z,5.30
2019-05-06T01:55:40.243Z,4.83
2019-05-06T01:58:11.150Z,4.17
2019-05-06T02:00:43.592Z,4.63
2019-05-06T02:03:14.830Z,4.93
2019-05-06T02:05:45.114Z,4.87
2019-05-06T02:08:15.159Z,4.93
2019-05-06T02:10:45.372Z,4.53
2019-05-06T02:13:15.697Z,4.97
2019-05-06T02:15:45.819Z,5.30
2019-05-06T02:18:17.877Z,4.33
2019-05-06T02:20:49.778Z,4.57
2019-05-06T02:23:24.076Z,4.33
2019-05-06T02:25:54.956Z,4.70
2019-05-06T02:28:24.993Z,4.80
2019-05-06T02:31:09.485Z,4.87
2019-05-06T02:33:47.518Z,5.43
2019-05-06T02:36:25.552Z,5.07
2019-05-06T02:38:55.743Z,4.30
2019-05-06T02:41:26.603Z,4.80
2019-05-06T02:43:57.069Z,4.60
2019-05-06T02:46:27.705Z,4.10
2019-05-06T02:49:15.116Z,3.77
2019-05-06T02:51:45.782Z,3.87
2019-05-06T02:54:16.236Z,3.97
2019-05-06T02:56:46.859Z,3.90
2019-05-06T02:59:17.426Z,4.20
2019-05-06T03:01:47.881Z,4.83
2019-05-06T03:04:18.032Z,4.17
2019-05-06T03:06:48.549Z,3.97
2019-05-06T03:09:19.493Z,4.63
2019-05-06T03:11:53.633Z,4.37
2019-05-06T03:14:23.353Z,4.70
2019-05-06T03:16:54.269Z,4.50
2019-05-06T03:19:26.259Z,4.87
2019-05-06T03:22:07.605Z,5.17
2019-05-06T03:24:39.647Z,4.43
2019-05-06T03:27:10.180Z,4.70
2019-05-06T03:29:40.468Z,5.83
2019-05-06T03:32:16.498Z,5.37
2019-05-06T03:35:01.093Z,5.53
2019-05-06T03:37:16.960Z,5.90
2019-05-06T03:39:46.106Z,5.60
2019-05-06T03:42:17.055Z,5.90
2019-05-06T03:44:53.331Z,6.40
2019-05-06T03:47:27.043Z,5.93
2019-05-06T03:49:57.242Z,6.10
2019-05-06T03:52:29.909Z,5.47
2019-05-06T03:55:03.396Z,6.00
2019-05-06T03:57:35.469Z,6.53
2019-05-06T04:00:05.227Z,5.97
2019-05-06T04:02:39.591Z,5.83
2019-05-06T04:05:08.451Z,6.70
2019-05-06T04:07:39.374Z,6.07
2019-05-06T04:10:13.343Z,7.20
2019-05-06T04:12:44.598Z,5.70
2019-05-06T04:15:15.286Z,6.30
2019-05-06T04:17:54.122Z,5.50
2019-05-06T04:20:29.206Z,6.00
2019-05-06T04:23:05.971Z,5.90
2019-05-06T04:25:43.879Z,5.77
2019-05-06T04:28:16.160Z,5.03
2019-05-06T04:30:47.075Z,4.63
2019-05-06T04:33:17.826Z,3.80
2019-05-06T04:35:48.252Z,3.33
2019-05-06T04:38:18.477Z,3.73
2019-05-06T04:40:49.081Z,3.37
2019-05-06T04:43:19.699Z,4.03
2019-05-06T04:45:49.904Z,3.43
2019-05-06T04:48:23.414Z,4.23
2019-05-06T04:50:54.114Z,4.33
2019-05-06T04:53:26.947Z,3.97
2019-05-06T04:55:56.445Z,4.17
2019-05-06T04:58:27.004Z,4.67
2019-05-06T05:00:57.353Z,4.57
2019-05-06T05:03:27.816Z,5.20
2019-05-06T05:05:57.834Z,4.73
2019-05-06T05:08:37.147Z,4.83
2019-05-06T05:11:15.892Z,4.33
2019-05-06T05:13:56.568Z,4.47
2019-05-06T05:16:28.735Z,4.47
2019-05-06T05:19:02.634Z,4.30
2019-05-06T05:21:33.016Z,4.57
2019-05-06T05:24:03.719Z,4.40
2019-05-06T05:26:34.108Z,4.00
2019-05-06T05:29:04.619Z,4.20
2019-05-06T05:31:35.241Z,4.40
2019-05-06T05:34:05.948Z,4.43
2019-05-06T05:36:36.253Z,4.37
2019-05-06T05:39:07.398Z,4.33
2019-05-06T05:41:37.724Z,4.10
2019-05-06T05:44:11.898Z,4.10
2019-05-06T05:46:43.699Z,3.30
2019-05-06T05:49:19.203Z,3.77
2019-05-06T05:51:49.970Z,3.40
2019-05-06T05:54:23.176Z,3.57
2019-05-06T05:56:53.229Z,3.43
2019-05-06T05:59:23.872Z,3.77
2019-05-06T06:01:54.452Z,3.87
2019-05-06T06:04:25.575Z,4.13
2019-05-06T06:06:55.923Z,3.70
2019-05-06T06:09:27.912Z,3.33
2019-05-06T06:11:59.678Z,3.17
2019-05-06T06:14:40.744Z,3.17
2019-05-06T06:17:12.963Z,3.70
2019-05-06T06:19:53.283Z,3.43
2019-05-06T06:22:25.226Z,2.30
2019-05-06T06:24:55.353Z,2.20
2019-05-06T06:27:25.508Z,1.80
2019-05-06T06:29:55.893Z,1.70
2019-05-06T06:32:27.678Z,2.13
2019-05-06T06:35:14.198Z,1.70
2019-05-06T06:37:52.382Z,1.73
2019-05-06T06:40:24.139Z,1.93
2019-05-06T06:42:56.635Z,1.57
2019-05-06T06:45:26.937Z,1.50
2019-05-06T06:47:57.461Z,1.90
2019-05-06T06:50:27.498Z,1.33
2019-05-06T06:52:57.987Z,1.87
2019-05-06T06:55:28.618Z,1.70
2019-05-06T06:58:07.102Z,1.63
2019-05-06T07:00:55.258Z,1.40
2019-05-06T07:03:29.124Z,1.53
2019-05-06T07:06:04.363Z,2.00
2019-05-06T07:08:37.715Z,2.07
2019-05-06T07:11:07.301Z,2.10
2019-05-06T07:13:41.995Z,1.70
2019-05-06T07:16:12.553Z,2.17
2019-05-06T07:18:43.570Z,2.10
2019-05-06T07:21:29.040Z,1.87
2019-05-06T07:24:02.167Z,1.83
2019-05-06T07:26:37.090Z,2.10
2019-05-06T07:29:15.343Z,1.90
2019-05-06T07:31:42.514Z,2.13
2019-05-06T07:34:12.392Z,1.83
2019-05-06T07:36:43.079Z,1.60
2019-05-06T07:39:15.328Z,2.07
2019-05-06T07:41:47.471Z,1.83
2019-05-06T07:44:34.849Z,1.73
2019-05-06T07:47:19.111Z,1.90
2019-05-06T07:49:49.874Z,2.20
2019-05-06T07:52:22.871Z,1.80
2019-05-06T07:54:53.361Z,2.20
2019-05-06T07:57:24.307Z,1.90
2019-05-06T07:59:54.960Z,2.63
2019-05-06T08:02:25.282Z,2.13
2019-05-06T08:04:55.550Z,2.67
2019-05-06T08:07:26.116Z,2.33
2019-05-06T08:09:56.546Z,1.90
2019-05-06T08:12:26.857Z,2.03
2019-05-06T08:14:57.181Z,2.00
2019-05-06T08:17:33.051Z,1.60
2019-05-06T08:20:03.450Z,1.70
2019-05-06T08:22:50.269Z,2.03
2019-05-06T08:25:22.971Z,2.23
2019-05-06T08:27:53.365Z,1.63
2019-05-06T08:30:25.723Z,1.70
2019-05-06T08:32:55.953Z,1.50
2019-05-06T08:35:26.087Z,1.43
2019-05-06T08:37:56.289Z,1.57
2019-05-06T08:40:26.644Z,2.63
2019-05-06T08:42:56.885Z,1.90
2019-05-06T08:45:27.250Z,2.07
2019-05-06T08:47:57.768Z,1.50
2019-05-06T08:50:44.853Z,1.60
2019-05-06T08:53:23.997Z,1.90
2019-05-06T08:55:52.951Z,2.60
2019-05-06T08:58:24.969Z,2.13
2019-05-06T09:00:57.638Z,2.00
2019-05-06T09:03:28.034Z,1.37
2019-05-06T09:05:59.603Z,1.70
2019-05-06T09:08:32.342Z,1.63
2019-05-06T09:11:03.061Z,1.50
2019-05-06T09:13:33.708Z,1.93
2019-05-06T09:16:04.338Z,1.50
2019-05-06T09:18:34.729Z,1.83
2019-05-06T09:21:05.187Z,1.67
2019-05-06T09:23:35.464Z,1.53
2019-05-06T09:26:07.399Z,1.67
2019-05-06T09:28:39.534Z,2.40
2019-05-06T09:31:12.608Z,1.60
2019-05-06T09:33:44.642Z,1.83
2019-05-06T09:36:15.290Z,1.60
2019-05-06T09:38:45.912Z,1.40
2019-05-06T09:41:16.636Z,1.70
2019-05-06T09:43:47.225Z,1.30
2019-05-06T09:46:17.815Z,1.50
2019-05-06T09:49:03.299Z,1.70
2019-05-06T09:51:33.906Z,1.30
2019-05-06T09:54:06.282Z,1.07
2019-05-06T09:56:38.633Z,1.17
2019-05-06T09:59:09.004Z,1.00
2019-05-06T10:01:39.424Z,1.70
2019-05-06T10:04:12.942Z,1.30
2019-05-06T10:06:55.666Z,1.60
2019-05-06T10:09:16.332Z,1.70
2019-05-06T10:11:47.152Z,1.23
2019-05-06T10:14:17.719Z,1.30
2019-05-06T10:16:47.898Z,1.40
2019-05-06T10:19:18.299Z,1.50
2019-05-06T10:21:48.669Z,2.03
2019-05-06T10:24:19.198Z,1.13
2019-05-06T10:26:52.359Z,1.20
2019-05-06T10:29:24.296Z,1.63
2019-05-06T10:32:03.082Z,1.50
2019-05-06T10:34:34.004Z,1.40
2019-05-06T10:37:18.044Z,1.40
2019-05-06T10:39:59.132Z,1.40
2019-05-06T10:42:38.276Z,1.23
2019-05-06T10:45:20.287Z,1.17
2019-05-06T10:47:50.545Z,1.50
2019-05-06T10:50:22.981Z,1.43
2019-05-06T10:53:02.553Z,1.60
2019-05-06T10:55:32.667Z,1.70
2019-05-06T10:58:03.039Z,1.40
2019-05-06T11:00:33.391Z,1.50
2019-05-06T11:03:18.691Z,1.40
2019-05-06T11:05:49.697Z,1.63
2019-05-06T11:08:22.113Z,1.47
2019-05-06T11:10:53.427Z,1.57
2019-05-06T11:13:24.580Z,2.20
2019-05-06T11:15:55.672Z,2.40
2019-05-06T11:18:28.349Z,2.00
2019-05-06T11:20:58.498Z,2.67
2019-05-06T11:23:28.910Z,3.03
2019-05-06T11:25:59.355Z,2.27
2019-05-06T11:28:46.412Z,2.33
2019-05-06T11:31:34.807Z,1.93
2019-05-06T11:34:19.270Z,2.10
2019-05-06T11:36:52.407Z,2.00
2019-05-06T11:39:24.014Z,2.57
2019-05-06T11:42:14.893Z,2.50
2019-05-06T11:44:26.628Z,2.03
2019-05-06T11:46:56.858Z,2.13
2019-05-06T11:49:27.147Z,2.00
2019-05-06T11:51:57.612Z,1.80
2019-05-06T11:54:27.819Z,1.40
2019-05-06T11:56:58.657Z,1.33
2019-05-06T11:59:29.214Z,1.70
2019-05-06T12:02:07.370Z,1.93
2019-05-06T12:04:37.855Z,1.47
2019-05-06T12:07:11.378Z,2.23
2019-05-06T12:09:40.426Z,1.43
2019-05-06T12:12:12.709Z,1.30
2019-05-06T12:14:42.974Z,1.30
2019-05-06T12:17:13.524Z,1.47
2019-05-06T12:19:43.927Z,1.30
2019-05-06T12:22:14.416Z,1.50
2019-05-06T12:24:44.766Z,1.67
2019-05-06T12:27:16.750Z,1.53
2019-05-06T12:29:47.654Z,1.57
2019-05-06T12:32:28.899Z,1.67
2019-05-06T12:34:59.027Z,1.50
2019-05-06T12:37:29.345Z,1.63
2019-05-06T12:39:59.421Z,1.80
2019-05-06T12:42:33.166Z,2.07
2019-05-06T12:45:04.626Z,1.80
2019-05-06T12:47:36.544Z,1.50
2019-05-06T12:50:07.410Z,1.50
2019-05-06T12:52:37.942Z,1.60
2019-05-06T12:55:18.264Z,1.70
2019-05-06T12:57:43.017Z,1.73
2019-05-06T13:00:13.709Z,2.17
2019-05-06T13:02:43.979Z,1.60
2019-05-06T13:05:15.624Z,1.53
2019-05-06T13:07:47.242Z,1.50
2019-05-06T13:10:19.645Z,1.40
2019-05-06T13:12:53.890Z,1.60
2019-05-06T13:15:24.493Z,1.40
2019-05-06T13:17:55.053Z,1.40
2019-05-06T13:20:26.026Z,1.60
2019-05-06T13:23:08.512Z,1.70
2019-05-06T13:25:35.945Z,1.43
2019-05-06T13:28:09.424Z,1.67
2019-05-06T13:30:39.628Z,1.47
2019-05-06T13:33:14.983Z,1.50
2019-05-06T13:35:45.419Z,1.30
2019-05-06T13:38:16.059Z,1.27
2019-05-06T13:40:53.779Z,1.57
2019-05-06T13:43:23.521Z,1.67
2019-05-06T13:45:58.555Z,1.53
2019-05-06T13:48:39.777Z,1.47
2019-05-06T13:51:12.420Z,2.30
2019-05-06T13:53:46.054Z,1.50
2019-05-06T13:56:15.227Z,1.33
2019-05-06T13:58:45.646Z,1.43
2019-05-06T14:01:23.027Z,1.27
2019-05-06T14:03:53.300Z,1.00
2019-05-06T14:06:24.258Z,1.47
2019-05-06T14:08:55.319Z,1.20
2019-05-06T14:11:25.605Z,1.27
2019-05-06T14:13:55.890Z,1.60
2019-05-06T14:16:26.402Z,1.27
2019-05-06T14:18:56.592Z,1.50
2019-05-06T14:21:26.985Z,1.10
2019-05-06T14:23:57.478Z,1.70
2019-05-06T14:26:44.976Z,1.57
2019-05-06T14:29:16.929Z,1.80
2019-05-06T14:31:48.868Z,2.10
2019-05-06T14:34:22.914Z,1.40
2019-05-06T14:36:53.557Z,1.30
2019-05-06T14:39:25.598Z,1.20
2019-05-06T14:41:57.478Z,1.00
2019-05-06T14:44:27.771Z,1.10
2019-05-06T14:47:03.029Z,1.37
2019-05-06T14:49:34.182Z,0.90
2019-05-06T14:52:04.581Z,1.40
2019-05-06T14:54:36.734Z,1.20
2019-05-06T14:57:14.085Z,1.23
2019-05-06T14:59:44.470Z,0.97
2019-05-06T15:02:15.001Z,1.00
2019-05-06T15:04:45.677Z,1.40
2019-05-06T15:07:16.705Z,1.30
2019-05-06T15:09:58.604Z,1.33
2019-05-06T15:12:22.692Z,0.97
2019-05-06T15:14:52.881Z,1.67
2019-05-06T15:17:24.028Z,1.50
2019-05-06T15:19:55.945Z,1.20
2019-05-06T15:22:26.929Z,1.73
2019-05-06T15:24:57.766Z,1.43
2019-05-06T15:27:29.036Z,1.63
2019-05-06T15:30:04.971Z,1.10
2019-05-06T15:32:37.664Z,1.60
2019-05-06T15:35:13.055Z,1.70
2019-05-06T15:37:48.198Z,1.70
2019-05-06T15:40:31.002Z,1.40
2019-05-06T15:42:53.268Z,1.43
2019-05-06T15:45:23.039Z,1.30
2019-05-06T15:47:54.128Z,1.50
2019-05-06T15:50:25.069Z,1.47
2019-05-06T15:52:55.344Z,1.60
2019-05-06T15:55:25.545Z,2.13
2019-05-06T15:57:55.868Z,1.47
2019-05-06T16:00:26.530Z,1.70
2019-05-06T16:02:56.781Z,1.10
2019-05-06T16:05:27.079Z,1.57
2019-05-06T16:07:57.314Z,1.37
2019-05-06T16:10:27.402Z,1.43
2019-05-06T16:12:57.597Z,1.60
2019-05-06T16:15:27.825Z,1.20
2019-05-06T16:17:58.231Z,1.30
2019-05-06T16:20:28.349Z,1.40
2019-05-06T16:23:00.434Z,1.57
2019-05-06T16:25:30.646Z,1.50
2019-05-06T16:28:02.274Z,1.53
2019-05-06T16:30:33.781Z,1.63
2019-05-06T16:33:04.481Z,1.50
2019-05-06T16:35:34.866Z,1.87
2019-05-06T16:38:05.580Z,1.63
2019-05-06T16:40:35.909Z,1.40
2019-05-06T16:43:06.181Z,2.00
2019-05-06T16:45:36.588Z,1.90
2019-05-06T16:48:06.918Z,2.20
2019-05-06T16:50:37.068Z,2.80
2019-05-06T16:53:07.472Z,1.70
2019-05-06T16:55:55.823Z,1.80
2019-05-06T16:58:47.087Z,1.43
2019-05-06T17:01:16.249Z,1.50
2019-05-06T17:03:54.480Z,1.43
2019-05-06T17:06:26.546Z,1.50
2019-05-06T17:08:56.765Z,1.53
2019-05-06T17:11:31.887Z,1.97
2019-05-06T17:14:00.568Z,1.87
2019-05-06T17:16:34.037Z,1.87
2019-05-06T17:19:05.525Z,1.83
2019-05-06T17:21:35.742Z,1.87
2019-05-06T17:24:06.276Z,1.60
2019-05-06T17:26:36.502Z,2.03
2019-05-06T17:29:13.919Z,1.50
2019-05-06T17:31:51.098Z,1.23
2019-05-06T17:34:22.929Z,1.50
2019-05-06T17:36:55.078Z,1.30
2019-05-06T17:39:25.241Z,1.50
2019-05-06T17:41:55.545Z,1.53
2019-05-06T17:44:26.006Z,1.10
2019-05-06T17:46:58.035Z,1.20
2019-05-06T17:49:33.300Z,1.70
2019-05-06T17:52:22.387Z,1.23
2019-05-06T17:54:52.909Z,1.83
2019-05-06T17:57:24.921Z,1.60
2019-05-06T17:59:55.265Z,1.53
2019-05-06T18:02:27.486Z,2.17
2019-05-06T18:04:57.959Z,2.13
2019-05-06T18:07:28.068Z,1.73
2019-05-06T18:09:58.304Z,1.63
2019-05-06T18:12:28.394Z,2.03
2019-05-06T18:14:58.624Z,1.70
2019-05-06T18:17:29.004Z,3.43
2019-05-06T18:20:02.951Z,2.10
2019-05-06T18:22:33.221Z,1.97
2019-05-06T18:25:03.425Z,1.50
2019-05-06T18:27:33.579Z,1.73
2019-05-06T18:30:19.333Z,2.07
2019-05-06T18:32:36.610Z,1.57
2019-05-06T18:35:07.372Z,1.70
2019-05-06T18:37:37.481Z,1.50
2019-05-06T18:40:08.035Z,1.70
2019-05-06T18:42:38.033Z,1.80
2019-05-06T18:45:08.324Z,1.90
2019-05-06T18:47:38.715Z,1.90
2019-05-06T18:50:09.115Z,1.80
2019-05-06T18:52:39.378Z,2.93
2019-05-06T18:55:09.481Z,1.90
2019-05-06T18:57:39.824Z,2.60
2019-05-06T19:00:11.143Z,2.00
2019-05-06T19:02:42.281Z,2.13
2019-05-06T19:05:26.868Z,2.07
2019-05-06T19:07:55.400Z,2.37
2019-05-06T19:10:29.855Z,2.10
2019-05-06T19:13:01.969Z,2.37
2019-05-06T19:15:33.386Z,2.30
2019-05-06T19:18:03.598Z,2.10
2019-05-06T19:20:34.180Z,1.87
2019-05-06T19:23:04.548Z,1.50
2019-05-06T19:25:35.108Z,2.30
2019-05-06T19:28:05.393Z,2.03
2019-05-06T19:30:35.582Z,2.73
2019-05-06T19:33:07.139Z,2.80
2019-05-06T19:35:37.489Z,2.60
2019-05-06T19:38:07.681Z,2.63
2019-05-06T19:40:38.290Z,2.40
2019-05-06T19:43:08.953Z,2.80
2019-05-06T19:45:39.181Z,2.70
2019-05-06T19:48:09.539Z,2.70
2019-05-06T19:50:40.001Z,2.63
2019-05-06T19:53:11.838Z,2.17
2019-05-06T19:55:46.607Z,2.73
2019-05-06T19:58:14.122Z,3.17
2019-05-06T20:00:44.746Z,2.83
2019-05-06T20:03:15.791Z,2.60
2019-05-06T20:05:54.410Z,2.03
2019-05-06T20:08:33.137Z,2.20
2019-05-06T20:11:12.998Z,2.77
2019-05-06T20:13:42.706Z,2.10
2019-05-06T20:16:12.877Z,2.80
2019-05-06T20:18:45.166Z,2.17
2019-05-06T20:21:15.017Z,2.20
2019-05-06T20:23:45.117Z,1.93
2019-05-06T20:26:15.549Z,2.37
2019-05-06T20:28:45.739Z,1.70
2019-05-06T20:31:16.009Z,2.40
2019-05-06T20:33:47.033Z,2.27
2019-05-06T20:36:17.370Z,2.67
2019-05-06T20:38:47.333Z,2.03
2019-05-06T20:41:17.511Z,2.00
2019-05-06T20:43:47.838Z,1.80
2019-05-06T20:46:17.974Z,2.27
2019-05-06T20:48:48.113Z,2.43
2019-05-06T20:51:18.435Z,1.83
2019-05-06T20:53:48.559Z,2.10
2019-05-06T20:56:18.631Z,2.60
2019-05-06T20:58:48.563Z,2.17
2019-05-06T21:01:18.976Z,2.70
2019-05-06T21:03:49.266Z,2.30
2019-05-06T21:06:19.491Z,1.90
2019-05-06T21:08:49.830Z,2.10
2019-05-06T21:11:26.489Z,2.60
2019-05-06T21:13:52.119Z,1.90
2019-05-06T21:16:22.595Z,2.13
2019-05-06T21:18:52.907Z,2.47
2019-05-06T21:21:25.865Z,2.13
2019-05-06T21:23:56.696Z,2.10
2019-05-06T21:26:27.042Z,2.10
2019-05-06T21:28:57.617Z,1.80
2019-05-06T21:31:27.637Z,2.30
2019-05-06T21:33:57.860Z,1.83
2019-05-06T21:36:28.025Z,1.87
2019-05-06T21:38:58.272Z,1.70
2019-05-06T21:41:28.826Z,1.73
2019-05-06T21:43:59.170Z,1.40
2019-05-06T21:46:31.828Z,1.97
2019-05-06T21:49:02.286Z,2.17
2019-05-06T21:51:32.861Z,1.90
2019-05-06T21:54:03.322Z,2.10
2019-05-06T21:56:33.743Z,1.90
2019-05-06T21:59:04.982Z,2.40
2019-05-06T22:01:35.712Z,2.23
2019-05-06T22:04:06.518Z,1.97
2019-05-06T22:06:37.255Z,2.00
2019-05-06T22:09:08.375Z,2.30
2019-05-06T22:11:39.238Z,2.80
2019-05-06T22:14:12.355Z,2.07
2019-05-06T22:16:44.169Z,2.90
2019-05-06T22:19:15.955Z,2.40
2019-05-06T22:22:07.024Z,2.00
2019-05-06T22:24:45.301Z,1.80
2019-05-06T22:27:16.403Z,2.33
2019-05-06T22:29:46.756Z,2.37
2019-05-06T22:32:17.350Z,1.60
2019-05-06T22:34:47.606Z,2.73
2019-05-06T22:37:18.033Z,1.57
2019-05-06T22:39:49.018Z,2.20
2019-05-06T22:42:19.815Z,2.27
2019-05-06T22:44:50.605Z,1.80
2019-05-06T22:47:22.965Z,1.90
2019-05-06T22:49:54.382Z,1.50
2019-05-06T22:52:24.904Z,2.30
2019-05-06T22:54:55.571Z,2.30
2019-05-06T22:57:26.448Z,2.03
2019-05-06T22:59:56.878Z,2.23
2019-05-06T23:02:34.694Z,1.90
2019-05-06T23:05:06.494Z,2.17
2019-05-06T23:07:36.859Z,2.23
2019-05-06T23:10:07.868Z,2.43
2019-05-06T23:15:34.297Z,2.20
2019-05-06T23:18:05.328Z,1.93
2019-05-06T23:20:35.576Z,2.80
2019-05-06T23:23:05.766Z,1.77
2019-05-06T23:25:36.170Z,1.67
2019-05-06T23:28:06.396Z,1.87
2019-05-06T23:30:37.085Z,1.70
2019-05-06T23:33:07.478Z,2.13
2019-05-06T23:35:37.690Z,2.50
2019-05-06T23:38:44.373Z,2.10
2019-05-06T23:41:52.822Z,1.80
2019-05-06T23:44:58.809Z,2.43
2019-05-06T23:48:05.308Z,1.77
2019-05-06T23:51:12.715Z,1.60
2019-05-06T23:54:21.932Z,1.67
2019-05-06T23:56:52.109Z,2.47
2019-05-06T23:59:22.837Z,2.07
